• Join FlightAware (Why Join?)
  • Login
  • US Flag 
04:24AM EDT


 

Airport Tracker/Info


-or-


 

Live Flight TrackerFlight Track Log ✈ JBU1105 ✈ 17-Nov-2013 ✈ KJFK - KORD

Flight Track Log - Related Links

Times and Time Zones

All times are in EST time to prevent confusion due to time zone crossing. See the JBU1105 flight status page for this flight to view local times or setup timezone preferences in your user account.

Time Position Orientation Groundspeed Altitude Reporting Facility
EST Latitude Longitude Course Direction KTS MPH feet Rate Location/Type
10:09PM 40.6000 -73.8000 74° East 175 201 2,200  Level New York TRACON
10:11PM 40.6333 -73.6500 74° East 300 345 6,700 2,400 Climbing New York TRACON
10:13PM 40.7833 -73.5833 19° North 340 391 12,000 2,340 Climbing New York TRACON
10:15PM 40.9500 -73.7000 332° Northwest 365 420 16,100 1,680 Climbing New York TRACON
10:16PM 41.0167 -73.8000 311° West 349 402 17,100 240 Climbing New York TRACON
10:19PM 41.0522 -74.0975 279° West 346 398 17,100 -60 Level New York Center
10:20PM 41.0678 -74.2086 281° West 346 398 17,000 360 Descending New York Center
10:21PM 41.0889 -74.3417 282° West 341 392 17,900 1,200 Climbing New York Center
10:22PM 41.1022 -74.4497 279° West 341 392 19,500 1,800 Climbing New York Center
10:23PM 41.1208 -74.5831 281° West 343 395 21,500 2,220 Climbing New York Center
10:24PM 41.1517 -74.7281 286° West 357 411 24,000 1,740 Climbing New York Center
10:25PM 41.2036 -74.8497 300° West 368 423 25,000 1,200 Climbing New York Center
10:26PM 41.2519 -74.9572 301° West 381 438 26,400 1,320 Climbing New York Center
10:27PM 41.3036 -75.0847 298° West 387 445 27,700 1,260 Climbing New York Center
10:28PM 41.3575 -75.2072 300° West 387 445 29,000 1,200 Climbing New York Center
10:29PM 41.4150 -75.3381 300° West 392 451 30,100 1,380 Climbing New York Center
10:30PM 41.4683 -75.4636 300° West 392 451 31,800 1,560 Climbing New York Center
10:31PM 41.5069 -75.5936 292° West 380 437 33,300 1,260 Climbing New York Center
10:32PM 41.5433 -75.7183 291° West 368 423 34,400 780 Climbing New York Center
10:33PM 41.5797 -75.8431 291° West 362 417 34,900 540 Climbing New York Center
10:34PM 41.6178 -75.9736 291° West 367 422 35,500 540 Climbing New York Center
10:35PM 41.6536 -76.1069 290° West 372 428 36,000 240 Climbing New York Center
10:36PM 41.6911 -76.2403 291° West 382 440 36,000  Level New York Center
10:37PM 41.7589 -76.4869 290° West 389 448 36,000  Level Cleveland Center
10:38PM 41.7978 -76.6236 291° West 392 451 36,000  Level Cleveland Center
10:39PM 41.8358 -76.7614 290° West 394 453 36,000  Level Cleveland Center
10:40PM 41.8733 -76.8997 290° West 396 456 36,000  Level Cleveland Center
10:41PM 41.9117 -77.0372 291° West 394 453 36,000  Level Cleveland Center
10:42PM 41.9500 -77.1792 290° West 400 460 36,000  Level Cleveland Center
10:43PM 41.9869 -77.3214 289° West 405 466 36,000  Level Cleveland Center
10:44PM 42.0225 -77.4539 290° West 382 440 36,000  Level Cleveland Center
10:45PM 42.0661 -77.6139 290° West 379 436 36,000  Level Cleveland Center
10:47PM 42.1025 -77.7475 290° West 379 436 36,000  Level Cleveland Center
10:48PM 42.1375 -77.8806 290° West 378 435 36,000  Level Cleveland Center
10:49PM 42.1736 -78.0133 290° West 377 434 36,000  Level Cleveland Center
10:50PM 42.2081 -78.1447 290° West 373 429 36,000  Level Cleveland Center
10:51PM 42.2439 -78.2792 290° West 378 435 36,000  Level Cleveland Center
10:52PM 42.2778 -78.4128 289° West 377 434 36,000  Level Cleveland Center
10:53PM 42.3103 -78.5464 288° West 376 433 36,000  Level Cleveland Center
10:54PM 42.3431 -78.6786 289° West 372 428 36,000  Level Cleveland Center
10:55PM 42.3758 -78.8111 289° West 373 429 36,000  Level Cleveland Center
10:56PM 42.4025 -78.9578 284° West 385 443 36,000  Level Cleveland Center
10:57PM 42.4108 -79.0931 275° West 369 425 36,000  Level Cleveland Center
10:58PM 42.4200 -79.2275 275° West 365 420 36,000  Level Cleveland Center
10:59PM 42.4289 -79.3619 275° West 363 418 36,000  Level Cleveland Center
11:00PM 42.4375 -79.4969 275° West 365 420 36,000  Level Cleveland Center
11:01PM 42.4469 -79.6619 274° West 369 425 36,000  Level Cleveland Center
11:02PM 42.4550 -79.7944 275° West 361 415 36,000  Level Cleveland Center
11:03PM 42.4639 -79.9311 275° West 362 417 36,000  Level Cleveland Center
11:04PM 42.4697 -80.0675 273° West 367 422 36,000  Level Cleveland Center
11:05PM 42.4789 -80.2094 275° West 374 430 36,000  Level Cleveland Center
11:06PM 42.4869 -80.3528 274° West 379 436 36,000  Level Cleveland Center
11:07PM 42.4939 -80.4961 274° West 379 436 36,000  Level Cleveland Center
11:08PM 42.5017 -80.6411 274° West 384 442 36,000  Level Cleveland Center
11:09PM 42.5089 -80.7881 274° West 388 447 36,000  Level Cleveland Center
11:10PM 42.5122 -80.9344 272° West 389 448 36,000  Level Cleveland Center
11:11PM 42.5167 -81.0792 272° West 384 442 36,000  Level Cleveland Center
11:12PM 42.5200 -81.2267 272° West 389 448 36,000  Level Cleveland Center
11:13PM 42.5342 -81.3750 277° West 394 453 36,000  Level Cleveland Center
11:14PM 42.5503 -81.5189 279° West 387 445 36,000  Level Cleveland Center
11:15PM 42.5669 -81.6683 279° West 396 456 36,000  Level Cleveland Center
11:16PM 42.5836 -81.8178 279° West 396 456 36,000  Level Cleveland Center
11:17PM 42.5992 -81.9664 278° West 399 459 36,000  Level Cleveland Center
11:18PM 42.6164 -82.1108 279° West 393 452 36,000  Level Cleveland Center
11:19PM 42.6339 -82.2842 278° West 388 447 36,000  Level Cleveland Center
11:20PM 42.6486 -82.4256 278° West 383 441 36,000  Level Cleveland Center
11:21PM 42.6642 -82.5647 279° West 377 434 36,000  Level Cleveland Center
11:22PM 42.6786 -82.7050 278° West 377 434 36,000  Level Cleveland Center
11:23PM 42.6922 -82.8433 278° West 374 430 36,000  Level Cleveland Center
11:24PM 42.7064 -82.9836 278° West 376 433 36,000  Level Cleveland Center
11:25PM 42.7228 -83.1239 279° West 378 435 36,000  Level Cleveland Center
11:26PM 42.7378 -83.2656 278° West 381 438 36,000  Level Cleveland Center
11:27PM 42.7553 -83.4072 280° West 383 441 36,000  Level Cleveland Center
11:28PM 42.7714 -83.5506 279° West 387 445 36,000  Level Cleveland Center
11:29PM 42.7881 -83.6931 279° West 385 443 36,000 -480 Level Cleveland Center
11:30PM 42.8081 -83.8656 279° West 387 445 35,100 -960 Descending Cleveland Center
11:31PM 42.8231 -84.0114 278° West 390 449 34,100 -1,020 Descending Cleveland Center
11:32PM 42.8386 -84.1542 278° West 385 443 33,100 -960 Descending Cleveland Center
11:33PM 42.8544 -84.2964 279° West 382 440 32,200 -600 Descending Cleveland Center
11:34PM 42.8667 -84.4231 278° West 383 441 32,000 -120 Descending Cleveland Center
11:35PM 42.8825 -84.5656 279° West 381 438 32,000  Level Cleveland Center
11:36PM 42.8686 -84.7375 264° West 381 438 32,000  Level Cleveland Center
11:37PM 42.8528 -84.8814 262° West 383 441 32,000  Level Cleveland Center
11:38PM 42.8389 -85.0233 262° West 380 437 32,000  Level Cleveland Center
11:39PM 42.8236 -85.1647 262° West 378 435 32,000  Level Cleveland Center
11:40PM 42.8067 -85.3056 261° West 377 434 32,000  Level Cleveland Center
11:41PM 42.7925 -85.4461 262° West 374 430 32,000  Level Cleveland Center
11:42PM 42.7711 -85.5831 258° West 370 426 32,000 -60 Level Cleveland Center
11:43PM 42.7458 -85.7192 256° West 370 426 31,900 -660 Descending Cleveland Center
11:44PM 42.7225 -85.8547 257° West 367 422 30,700 -1,680 Descending Cleveland Center
11:45PM 42.6975 -85.9903 256° West 367 422 28,600 -2,160 Descending Cleveland Center
11:46PM 42.6733 -86.1258 256° West 367 422 26,400 -2,100 Descending Cleveland Center
11:47PM 42.6481 -86.2558 255° West 357 411 24,400 -1,980 Descending Cleveland Center
11:48PM 42.6247 -86.3847 256° West 352 405 22,400 -2,040 Descending Cleveland Center
11:50PM 42.5894 -86.5667 255° West 355 409 19,600 -2,160 Descending Chicago Center
11:51PM 42.5678 -86.6850 256° West 339 390 17,400 -2,040 Descending Chicago Center
11:52PM 42.5389 -86.8067 252° West 329 379 15,600 -1,860 Descending Chicago Center
11:53PM 42.5069 -86.9236 250° West 331 381 13,700 -1,680 Descending Chicago Center
11:54PM 42.4758 -87.0372 250° West 324 373 12,200 -1,560 Descending Chicago Center
11:55PM 42.4475 -87.1367 249° West 287 330 10,600 -1,320 Descending Chicago Center
11:56PM 42.4228 -87.2281 250° West 261 300 9,600 -840 Descending Chicago Center
11:57PM 42.3983 -87.3142 249° West 248 285 9,000 -300 Descending Chicago Center
11:58PM 42.3767 -87.3969 251° West 210 242 9,000  Level Chicago Center
11:59PM 42.3567 -87.4681 249° West 204 235 9,000 -360 Level Chicago Center
12:00AM 42.3361 -87.5389 249° West 204 235 8,300 -480 Descending Chicago Center
12:01AM 42.2708 -87.5311 175° South 236 272 8,100 -120 Descending Chicago Center
12:02AM 42.2111 -87.5094 165° South 225 259 8,100 -660 Level Chicago Center
12:03AM 42.1561 -87.4728 154° Southeast 226 260 6,800 -1,080 Descending Chicago Center
12:04AM 42.1031 -87.4139 141° Southeast 243 280 6,000 -540 Descending Chicago Center
12:05AM 42.0439 -87.3892 163° South 232 267 5,800 -840 Descending Chicago Center
12:06AM 41.9875 -87.3828 175° South 221 254 4,300 -900 Descending Chicago Center
12:07AM 41.9828 -87.4358 263° West 173 199 4,000 -180 Descending Chicago Center
12:08AM 41.9828 -87.4883 270° West 152 175 4,000  Level Chicago Center
12:09AM 41.9831 -87.5403 270° West 144 166 4,000  Level Chicago Center
12:10AM 41.9839 -87.6039 271° West 143 165 4,000  Level Chicago Center
12:11AM 41.9833 -87.6581 269° West 144 166 4,000 -300 Level Chicago Center
12:12AM 41.9836 -87.7092 270° West 142 163 3,400 -720 Descending Chicago Center
12:13AM 41.9836 -87.7606 270° West 140 161 2,600 -780 Descending Chicago Center
12:14AM 41.9844 -87.8111 271° West 139 160 1,900 -600 Descending Chicago Center
12:15AM 41.9842 -87.8583 270° West 132 152 1,400 -540 Descending Chicago Center
12:17AM 41.9667 -87.9000 206° Southwest  Level FlightAware Approximate